Time;durP1;ratioP1;P1;durP2;ratioP2;P2;SDS_P1;SDS_P2;PMS_P1;PMS_P2;Temp;Humidity;BMP_temperature;BMP_pressure;BME280_temperature;BME280_humidity;BME280_pressure;Samples;Min_cycle;Max_cycle;Signal;HPM_P1;HPM_P2
2023/04/04 00:00:51;;;;;;;4.00;2.55;;;;;;;3.44;93.24;100347.78;1719964;83;21465;-66
2023/04/04 00:03:22;;;;;;;3.52;2.42;;;;;;;3.44;93.24;100345.92;1719638;83;21025;-66
2023/04/04 00:05:52;;;;;;;4.15;2.83;;;;;;;3.47;93.18;100344.77;1719589;83;21032;-67
2023/04/04 00:08:20;;;;;;;3.40;2.72;;;;;;;3.45;93.05;100350.33;1719647;83;21483;-67
2023/04/04 00:11:01;;;;;;;4.75;2.67;;;;;;;3.43;93.06;100348.28;1711522;83;21512;-66
2023/04/04 00:13:33;;;;;;;4.58;2.70;;;;;;;3.42;93.01;100348.43;1711428;83;21556;-64
2023/04/04 00:16:02;;;;;;;4.53;2.80;;;;;;;3.38;92.64;100349.24;1711527;83;21027;-67
2023/04/04 00:18:32;;;;;;;3.25;2.40;;;;;;;3.34;92.73;100349.70;1711804;82;21032;-67
2023/04/04 00:21:03;;;;;;;3.85;2.60;;;;;;;3.32;92.66;100346.29;1711979;84;21023;-67
2023/04/04 00:23:33;;;;;;;6.12;2.72;;;;;;;3.31;92.65;100340.03;1712024;83;21058;-68
2023/04/04 00:26:02;;;;;;;4.47;2.45;;;;;;;3.32;92.69;100344.94;1714223;83;21007;-65
2023/04/04 00:28:31;;;;;;;4.37;2.25;;;;;;;3.31;92.53;100345.95;1714749;83;21138;-66
2023/04/04 00:31:01;;;;;;;3.08;2.30;;;;;;;3.31;92.53;100336.47;1714662;83;21051;-66
2023/04/04 00:33:31;;;;;;;3.37;2.40;;;;;;;3.31;92.58;100341.38;1714341;84;21003;-66
2023/04/04 00:36:00;;;;;;;3.52;2.47;;;;;;;3.31;92.46;100344.09;1712339;84;21059;-67
2023/04/04 00:38:30;;;;;;;3.30;2.02;;;;;;;3.28;92.33;100347.09;1711959;84;21003;-64
2023/04/04 00:40:59;;;;;;;2.35;2.10;;;;;;;3.29;92.37;100355.57;1712067;83;21039;-66
2023/04/04 00:43:29;;;;;;;4.30;2.20;;;;;;;3.28;92.29;100353.88;1691757;84;21082;-64
2023/04/04 00:45:58;;;;;;;3.10;2.30;;;;;;;3.26;92.22;100353.17;1711169;84;21043;-66
2023/04/04 00:48:27;;;;;;;3.92;2.80;;;;;;;3.24;92.23;100350.23;1711760;82;21019;-64
2023/04/04 00:50:56;;;;;;;3.35;2.50;;;;;;;3.28;92.36;100348.45;1692128;84;21074;-65
2023/04/04 00:53:25;;;;;;;4.10;2.85;;;;;;;3.31;92.43;100350.86;1711337;84;21039;-65
2023/04/04 00:55:55;;;;;;;3.25;2.60;;;;;;;3.34;92.49;100347.84;1711414;82;21031;-65
2023/04/04 00:58:26;;;;;;;5.08;2.50;;;;;;;3.34;92.29;100349.70;1711605;84;22065;-65
2023/04/04 01:00:54;;;;;;;4.47;2.50;;;;;;;3.30;92.23;100341.03;1711342;83;21028;-65
2023/04/04 01:03:25;;;;;;;3.80;2.30;;;;;;;3.31;92.35;100341.87;1659636;86;21148;-65
2023/04/04 01:05:55;;;;;;;3.92;2.52;;;;;;;3.31;92.21;100343.23;1659581;86;21106;-65
2023/04/04 01:08:26;;;;;;;3.70;2.90;;;;;;;3.29;92.21;100343.89;1659877;86;21054;-66
2023/04/04 01:10:55;;;;;;;4.72;2.80;;;;;;;3.29;92.31;100347.45;1644882;86;21521;-63
2023/04/04 01:13:26;;;;;;;4.87;3.10;;;;;;;3.32;92.42;100342.23;1644548;87;21083;-67
2023/04/04 01:15:55;;;;;;;4.83;2.90;;;;;;;3.33;92.38;100344.78;1622569;87;21043;-66
2023/04/04 01:18:24;;;;;;;4.00;3.02;;;;;;;3.32;92.29;100344.44;1644382;87;21178;-67
2023/04/04 01:21:09;;;;;;;4.95;3.10;;;;;;;3.34;92.29;100352.41;1661072;83;21067;-67
2023/04/04 01:24:01;;;;;;;6.87;3.58;;;;;;;3.35;92.37;100349.55;1717311;83;21047;-65
2023/04/04 01:26:38;;;;;;;4.50;2.52;;;;;;;3.36;92.26;100351.25;1708349;83;21071;-65
2023/04/04 01:29:07;;;;;;;5.67;3.30;;;;;;;3.38;92.19;100351.09;1717297;83;21694;-65
2023/04/04 01:31:43;;;;;;;4.97;3.27;;;;;;;3.35;92.14;100354.96;1716987;83;21541;-65
2023/04/04 01:34:44;;;;;;;4.75;3.40;;;;;;;3.35;92.16;100354.96;1691058;83;21059;-66
2023/04/04 01:37:37;;;;;;;5.85;3.50;;;;;;;3.35;92.22;100351.41;1692526;83;21062;-65
2023/04/04 01:40:17;;;;;;;4.62;3.02;;;;;;;3.35;92.23;100363.59;1717206;83;21070;-67
2023/04/04 01:42:48;;;;;;;3.55;2.85;;;;;;;3.33;92.18;100367.80;1717268;83;21055;-67
2023/04/04 01:45:21;;;;;;;5.83;3.67;;;;;;;3.30;92.22;100376.23;1717277;83;21023;-66
2023/04/04 01:47:51;;;;;;;5.28;3.75;;;;;;;3.30;92.25;100372.17;1691750;83;21075;-66
2023/04/04 01:50:23;;;;;;;6.22;3.80;;;;;;;3.28;92.30;100374.17;1717407;83;21284;-66
2023/04/04 01:52:53;;;;;;;5.53;4.25;;;;;;;3.28;92.31;100383.66;1717561;83;21023;-66
2023/04/04 01:55:22;;;;;;;6.15;4.50;;;;;;;3.27;92.40;100384.66;1717351;83;21035;-66
2023/04/04 01:57:51;;;;;;;6.28;4.30;;;;;;;3.27;92.41;100391.42;1717068;83;21027;-63
2023/04/04 02:00:21;;;;;;;5.90;4.45;;;;;;;3.23;92.54;100390.49;1717401;83;21046;-65
2023/04/04 02:02:51;;;;;;;6.62;4.42;;;;;;;3.23;92.68;100385.08;1717198;83;21545;-64
2023/04/04 02:05:22;;;;;;;6.95;4.10;;;;;;;3.22;92.60;100386.93;1716788;83;21114;-66
2023/04/04 02:07:53;;;;;;;5.37;3.60;;;;;;;3.20;92.68;100384.88;1717025;83;21038;-67
2023/04/04 02:10:24;;;;;;;6.33;3.83;;;;;;;3.22;92.79;100373.39;1718186;82;21072;-66
2023/04/04 02:12:54;;;;;;;4.75;3.20;;;;;;;3.22;92.84;100378.81;1719748;82;21068;-66
2023/04/04 02:15:24;;;;;;;4.97;3.42;;;;;;;3.23;92.95;100376.45;1719867;82;21069;-66
2023/04/04 02:17:53;;;;;;;4.70;3.17;;;;;;;3.23;93.00;100364.27;1719488;82;21088;-66
2023/04/04 02:20:22;;;;;;;4.15;3.05;;;;;;;3.22;92.96;100365.77;1719884;83;21034;-65
2023/04/04 02:22:53;;;;;;;4.62;3.10;;;;;;;3.20;92.99;100367.28;1719938;83;21028;-65
2023/04/04 02:25:23;;;;;;;4.12;3.22;;;;;;;3.19;92.95;100366.42;1719664;83;21033;-66
2023/04/04 02:27:54;;;;;;;5.05;3.12;;;;;;;3.17;93.08;100372.50;1719636;83;21037;-65
2023/04/04 02:30:23;;;;;;;6.00;3.65;;;;;;;3.22;93.29;100363.92;1719965;82;21507;-64
2023/04/04 02:32:58;;;;;;;5.67;3.72;;;;;;;3.23;93.31;100362.92;1719835;83;21500;-65
2023/04/04 02:35:28;;;;;;;5.65;3.40;;;;;;;3.23;93.21;100353.44;1694934;83;21073;-66
2023/04/04 02:37:57;;;;;;;4.60;3.20;;;;;;;3.22;93.21;100349.53;1719575;82;21441;-65
2023/04/04 02:40:28;;;;;;;6.53;3.58;;;;;;;3.24;93.21;100342.96;1719481;82;21457;-65
2023/04/04 02:42:57;;;;;;;5.25;3.52;;;;;;;3.25;93.15;100344.70;1719739;82;21076;-67
2023/04/04 02:45:27;;;;;;;4.72;3.10;;;;;;;3.26;93.17;100338.28;1719946;83;21084;-65
2023/04/04 02:47:58;;;;;;;5.15;3.33;;;;;;;3.23;92.91;100338.55;1719215;83;21033;-65
2023/04/04 02:50:33;;;;;;;4.72;3.50;;;;;;;3.20;92.91;100336.14;1718857;83;21060;-68
2023/04/04 02:53:05;;;;;;;5.03;3.58;;;;;;;3.19;92.92;100336.65;1719405;83;21457;-64
2023/04/04 02:55:35;;;;;;;4.85;3.40;;;;;;;3.16;92.88;100332.89;1720003;83;21473;-64
2023/04/04 02:58:07;;;;;;;5.03;3.58;;;;;;;3.15;92.86;100335.25;1659863;86;21041;-66
2023/04/04 03:00:37;;;;;;;6.05;4.08;;;;;;;3.17;92.88;100336.45;1660171;85;21073;-66
2023/04/04 03:03:07;;;;;;;5.53;3.80;;;;;;;3.17;92.91;100340.51;1659956;86;21573;-66
2023/04/04 03:05:38;;;;;;;5.50;3.80;;;;;;;3.16;92.91;100347.78;1660230;85;21045;-65
2023/04/04 03:08:07;;;;;;;9.20;3.40;;;;;;;3.19;92.92;100364.22;1659948;86;21532;-65
2023/04/04 03:10:36;;;;;;;5.75;3.37;;;;;;;3.18;92.93;100364.72;1659420;86;21138;-66
2023/04/04 03:13:06;;;;;;;4.90;3.17;;;;;;;3.16;92.88;100364.52;1637069;86;21075;-65
2023/04/04 03:15:39;;;;;;;5.83;3.30;;;;;;;3.15;92.86;100362.82;1671048;83;21042;-65
2023/04/04 03:18:08;;;;;;;4.95;3.35;;;;;;;3.18;92.89;100374.70;1711547;84;21086;-65
2023/04/04 03:20:38;;;;;;;4.85;3.45;;;;;;;3.18;93.02;100371.49;1711813;82;21066;-66
2023/04/04 03:23:07;;;;;;;7.22;3.77;;;;;;;3.20;92.97;100379.46;1711681;83;21055;-65
2023/04/04 03:25:36;;;;;;;4.92;3.55;;;;;;;3.18;92.94;100378.76;1711268;84;21062;-64
2023/04/04 03:28:10;;;;;;;6.35;3.85;;;;;;;3.16;92.98;100382.13;1690979;84;21047;-66
2023/04/04 03:30:41;;;;;;;7.33;4.00;;;;;;;3.13;93.08;100379.22;1691553;83;21047;-66
2023/04/04 03:33:11;;;;;;;6.67;4.00;;;;;;;3.14;93.22;100387.69;1711708;83;21054;-67
2023/04/04 03:35:41;;;;;;;4.35;3.10;;;;;;;3.13;93.23;100382.42;1711591;83;21034;-65
2023/04/04 03:38:11;;;;;;;5.55;3.55;;;;;;;3.11;93.26;100383.92;1711380;83;21734;-66
2023/04/04 03:40:42;;;;;;;7.00;3.67;;;;;;;3.11;93.37;100393.91;1711644;83;21088;-66
2023/04/04 03:43:13;;;;;;;8.40;4.30;;;;;;;3.12;93.37;100386.13;1711479;82;21047;-66
2023/04/04 03:45:42;;;;;;;10.53;5.70;;;;;;;3.11;93.35;100383.08;1711609;83;21443;-66
2023/04/04 03:48:12;;;;;;;8.40;5.42;;;;;;;3.08;93.38;100382.02;1711499;84;21067;-68
2023/04/04 03:50:42;;;;;;;7.62;5.12;;;;;;;3.07;93.50;100382.52;1711780;84;21501;-66
2023/04/04 03:53:12;;;;;;;7.17;4.22;;;;;;;3.04;93.44;100379.27;1711582;84;21011;-67
2023/04/04 03:55:43;;;;;;;8.53;4.37;;;;;;;3.00;93.51;100377.36;1712266;83;21040;-68
2023/04/04 03:58:12;;;;;;;9.08;4.70;;;;;;;2.95;93.55;100381.52;1711655;83;21070;-66
2023/04/04 04:00:41;;;;;;;6.28;3.65;;;;;;;2.94;93.82;100382.52;1711651;83;21039;-67
2023/04/04 04:03:13;;;;;;;7.42;3.92;;;;;;;2.93;93.80;100378.95;1713402;84;21007;-66
2023/04/04 04:05:44;;;;;;;4.92;3.00;;;;;;;2.93;93.91;100383.52;1715325;84;21060;-66
2023/04/04 04:08:13;;;;;;;7.83;3.20;;;;;;;2.94;94.00;100383.87;1715273;84;21027;-65
2023/04/04 04:10:42;;;;;;;6.42;3.22;;;;;;;2.94;93.94;100385.22;1715784;82;21108;-65
2023/04/04 04:13:12;;;;;;;7.33;3.67;;;;;;;2.95;93.95;100387.78;1713947;83;21027;-65
2023/04/04 04:15:43;;;;;;;5.95;3.80;;;;;;;2.97;93.93;100389.84;1712827;84;21011;-65
2023/04/04 04:18:15;;;;;;;7.70;3.90;;;;;;;2.97;93.85;100391.69;1711520;82;20995;-66
2023/04/04 04:20:46;;;;;;;6.22;3.10;;;;;;;2.98;93.90;100396.09;1711359;84;21007;-64
2023/04/04 04:23:14;;;;;;;5.35;3.27;;;;;;;2.96;93.77;100389.98;1711606;82;21031;-64
2023/04/04 04:25:47;;;;;;;5.40;3.20;;;;;;;2.93;93.79;100402.46;1711921;83;21007;-64
2023/04/04 04:28:17;;;;;;;7.33;3.95;;;;;;;2.91;93.84;100404.47;1711463;84;20992;-66
2023/04/04 04:30:50;;;;;;;6.35;3.75;;;;;;;2.91;94.02;100408.52;1711586;83;21050;-66
2023/04/04 04:33:23;;;;;;;7.00;3.70;;;;;;;2.91;94.09;100403.96;1711579;84;21099;-68
2023/04/04 04:36:01;;;;;;;7.62;4.17;;;;;;;2.91;94.14;100404.47;1692430;84;21475;-67
2023/04/04 04:38:32;;;;;;;8.03;3.67;;;;;;;2.91;94.22;100401.25;1711581;83;21427;-68
2023/04/04 04:41:02;;;;;;;7.78;3.98;;;;;;;2.92;94.34;100396.20;1711653;82;21446;-64
2023/04/04 04:43:35;;;;;;;5.28;3.10;;;;;;;2.90;94.25;100398.20;1711001;83;21053;-66
2023/04/04 04:46:07;;;;;;;6.83;3.95;;;;;;;2.88;94.35;100410.17;1711279;83;21115;-66
2023/04/04 04:48:39;;;;;;;6.05;3.60;;;;;;;2.92;94.45;100411.58;1659184;86;21514;-67
2023/04/04 04:51:13;;;;;;;7.90;4.03;;;;;;;2.92;94.38;100414.28;1659418;86;21502;-67
2023/04/04 04:53:44;;;;;;;8.08;3.87;;;;;;;2.92;94.30;100406.17;1658886;85;21110;-66
2023/04/04 04:56:13;;;;;;;9.50;4.25;;;;;;;2.93;94.42;100398.41;1659505;86;21148;-65
2023/04/04 04:58:46;;;;;;;10.00;4.92;;;;;;;2.96;94.37;100408.92;1659356;86;21113;-67
2023/04/04 05:01:17;;;;;;;8.65;4.83;;;;;;;2.95;94.36;100405.88;1658856;86;21127;-65
2023/04/04 05:03:47;;;;;;;8.73;5.00;;;;;;;2.96;94.49;100408.92;1659473;85;21521;-66
2023/04/04 05:06:21;;;;;;;10.10;5.58;;;;;;;2.99;94.53;100411.34;1675470;84;21031;-65
2023/04/04 05:08:54;;;;;;;12.60;6.78;;;;;;;2.99;94.56;100406.78;1711310;83;21432;-66
2023/04/04 05:11:37;;;;;;;10.23;6.17;;;;;;;3.00;94.61;100409.84;1717421;83;21492;-66
2023/04/04 05:14:06;;;;;;;13.18;6.80;;;;;;;3.03;94.68;100412.75;1719504;83;21064;-66
2023/04/04 05:16:39;;;;;;;10.88;6.70;;;;;;;3.04;94.64;100410.39;1719909;83;21072;-66
2023/04/04 05:19:08;;;;;;;11.88;6.20;;;;;;;3.05;94.63;100412.95;1719852;83;21562;-68
2023/04/04 05:21:42;;;;;;;11.95;6.42;;;;;;;3.04;94.48;100421.22;1719559;83;21033;-66
2023/04/04 05:24:15;;;;;;;8.95;5.17;;;;;;;3.01;94.49;100416.95;1719732;83;21056;-67
2023/04/04 05:26:45;;;;;;;6.53;4.50;;;;;;;3.03;94.60;100435.75;1719661;82;21056;-66
2023/04/04 05:29:15;;;;;;;8.93;5.20;;;;;;;3.08;94.59;100432.09;1719815;83;21517;-67
2023/04/04 05:31:47;;;;;;;7.97;4.17;;;;;;;3.08;94.49;100441.07;1719727;83;21025;-66
2023/04/04 05:34:18;;;;;;;10.18;4.55;;;;;;;3.08;94.21;100444.28;1719870;83;21500;-66
2023/04/04 05:36:49;;;;;;;7.67;4.45;;;;;;;3.03;94.02;100450.64;1719789;82;21525;-66
2023/04/04 05:39:20;;;;;;;5.87;3.83;;;;;;;2.99;93.92;100428.93;1719755;83;21048;-66
2023/04/04 05:41:50;;;;;;;9.25;5.40;;;;;;;2.99;93.92;100405.92;1717313;83;21076;-68
2023/04/04 05:44:19;;;;;;;6.95;3.98;;;;;;;2.99;93.90;100385.63;1719864;82;21326;-68
2023/04/04 05:46:48;;;;;;;6.55;4.08;;;;;;;2.99;93.92;100388.34;1720022;83;21041;-69
2023/04/04 05:49:17;;;;;;;6.78;4.00;;;;;;;2.99;93.91;100420.81;1719672;83;21084;-67
2023/04/04 05:51:51;;;;;;;7.10;4.03;;;;;;;3.00;93.91;100449.58;1718881;83;21554;-68
2023/04/04 05:54:20;;;;;;;6.92;4.40;;;;;;;3.01;93.88;100447.23;1719673;83;21084;-68
2023/04/04 05:56:50;;;;;;;6.87;4.10;;;;;;;3.01;93.74;100433.69;1719805;82;21032;-67
2023/04/04 05:59:21;;;;;;;7.00;4.08;;;;;;;3.02;93.81;100438.11;1718596;83;21091;-67
2023/04/04 06:01:53;;;;;;;5.30;3.52;;;;;;;3.06;93.76;100446.28;1719051;82;21100;-64
2023/04/04 06:04:22;;;;;;;5.55;3.37;;;;;;;3.05;93.53;100467.58;1719328;82;21093;-67
2023/04/04 06:06:53;;;;;;;5.75;3.70;;;;;;;3.04;93.45;100468.09;1719773;82;21025;-67
2023/04/04 06:09:22;;;;;;;5.85;3.25;;;;;;;3.05;93.33;100466.23;1671472;83;21092;-66
2023/04/04 06:11:51;;;;;;;7.05;3.47;;;;;;;3.03;93.06;100465.52;1719449;83;21044;-67
2023/04/04 06:14:22;;;;;;;7.20;4.12;;;;;;;2.97;92.81;100471.53;1719719;82;21456;-66
2023/04/04 06:16:52;;;;;;;7.20;3.85;;;;;;;2.94;92.83;100474.53;1719962;82;21083;-67
2023/04/04 06:19:22;;;;;;;8.00;3.52;;;;;;;2.96;92.99;100468.47;1719768;83;21052;-66
2023/04/04 06:21:51;;;;;;;6.20;3.20;;;;;;;2.99;93.06;100468.17;1719815;83;21140;-69
2023/04/04 06:24:21;;;;;;;5.30;3.30;;;;;;;2.98;92.74;100470.53;1719331;83;21456;-67
2023/04/04 06:26:51;;;;;;;7.95;3.47;;;;;;;2.96;92.80;100465.77;1719507;83;21464;-68
2023/04/04 06:29:26;;;;;;;6.53;3.42;;;;;;;3.02;92.89;100467.87;1719737;82;21060;-68
2023/04/04 06:31:57;;;;;;;4.65;3.30;;;;;;;3.03;92.82;100471.79;1719658;83;21100;-66
2023/04/04 06:34:30;;;;;;;6.22;3.30;;;;;;;3.07;92.85;100466.44;1718612;83;21017;-67
2023/04/04 06:37:00;;;;;;;6.90;3.70;;;;;;;3.09;92.79;100459.02;1719819;83;21112;-68
2023/04/04 06:39:33;;;;;;;5.42;3.12;;;;;;;3.13;92.60;100454.16;1719623;83;21044;-67
2023/04/04 06:42:06;;;;;;;7.15;3.75;;;;;;;3.13;92.17;100453.66;1719401;83;21029;-67
2023/04/04 06:44:38;;;;;;;7.67;3.45;;;;;;;3.11;92.01;100450.75;1719814;82;21072;-66
2023/04/04 06:47:08;;;;;;;8.83;3.95;;;;;;;3.13;91.87;100441.98;1719822;83;21052;-68
2023/04/04 06:49:38;;;;;;;9.35;3.72;;;;;;;3.13;91.64;100453.66;1719721;83;21088;-68
2023/04/04 06:52:08;;;;;;;7.17;3.42;;;;;;;3.14;91.55;100449.09;1719454;83;21088;-68
2023/04/04 06:54:38;;;;;;;7.00;3.60;;;;;;;3.18;91.48;100442.38;1719809;83;21280;-68
2023/04/04 06:57:07;;;;;;;9.33;3.72;;;;;;;3.22;91.35;100439.73;1719388;83;21084;-69
2023/04/04 06:59:36;;;;;;;7.87;3.50;;;;;;;3.28;91.27;100440.52;1720070;83;21099;-68
2023/04/04 07:02:05;;;;;;;9.53;3.95;;;;;;;3.32;90.98;100445.12;1719655;83;21008;-68
2023/04/04 07:04:34;;;;;;;6.40;4.00;;;;;;;3.34;90.74;100443.98;1719828;83;21052;-70
2023/04/04 07:07:03;;;;;;;9.23;4.25;;;;;;;3.38;90.71;100437.25;1719799;83;21044;-68
2023/04/04 07:09:32;;;;;;;8.13;4.53;;;;;;;3.41;90.51;100443.73;1719619;83;21481;-67
2023/04/04 07:12:01;;;;;;;8.50;4.20;;;;;;;3.44;90.36;100448.84;1722338;83;21094;-69
2023/04/04 07:14:30;;;;;;;7.87;4.03;;;;;;;3.48;90.22;100446.68;1724928;83;21038;-69
2023/04/04 07:17:00;;;;;;;7.12;4.17;;;;;;;3.50;89.92;100448.23;1724508;83;21447;-67
2023/04/04 07:19:31;;;;;;;9.40;4.47;;;;;;;3.49;89.59;100456.02;1723328;83;21062;-68
2023/04/04 07:22:02;;;;;;;7.12;4.22;;;;;;;3.51;89.50;100458.57;1724492;83;21237;-67
2023/04/04 07:24:32;;;;;;;6.75;4.40;;;;;;;3.54;89.23;100461.48;1724629;83;20991;-68
2023/04/04 07:27:02;;;;;;;10.68;4.37;;;;;;;3.54;89.12;100458.77;1724824;82;21022;-69
2023/04/04 07:29:32;;;;;;;8.23;4.62;;;;;;;3.57;89.07;100457.11;1724904;83;21015;-69
2023/04/04 07:32:01;;;;;;;8.45;4.95;;;;;;;3.57;88.71;100461.17;1724342;83;21014;-69
2023/04/04 07:34:31;;;;;;;10.68;4.85;;;;;;;3.56;88.57;100468.45;1724922;83;21051;-71
2023/04/04 07:37:00;;;;;;;7.87;4.25;;;;;;;3.58;88.42;100477.78;1725128;83;21094;-69
2023/04/04 07:39:30;;;;;;;8.45;4.78;;;;;;;3.58;88.31;100469.16;1724953;83;21455;-68
2023/04/04 07:42:05;;;;;;;14.25;5.58;;;;;;;3.56;88.01;100468.95;1725422;83;21055;-67
2023/04/04 07:44:36;;;;;;;11.53;5.42;;;;;;;3.53;88.03;100472.81;1727235;83;21464;-67
2023/04/04 07:47:05;;;;;;;12.28;5.17;;;;;;;3.54;88.25;100476.38;1728320;83;21049;-69
2023/04/04 07:49:35;;;;;;;9.05;5.12;;;;;;;3.57;88.46;100480.14;1727740;83;21019;-68
2023/04/04 07:52:05;;;;;;;11.08;5.30;;;;;;;3.59;88.51;100476.28;1727863;83;21019;-67
2023/04/04 07:54:34;;;;;;;13.13;6.20;;;;;;;3.64;88.67;100483.45;1726438;83;21054;-69
2023/04/04 07:57:05;;;;;;;14.53;8.25;;;;;;;3.62;88.45;100477.33;1723540;82;21079;-67
2023/04/04 07:59:36;;;;;;;19.82;10.48;;;;;;;3.64;88.57;100475.32;1722101;83;21023;-69
2023/04/04 08:02:06;;;;;;;21.45;9.78;;;;;;;3.66;88.58;100477.37;1710521;83;21155;-70
2023/04/04 08:04:36;;;;;;;12.85;6.55;;;;;;;3.71;88.73;100475.56;1700006;84;21023;-68
2023/04/04 08:07:04;;;;;;;14.83;5.40;;;;;;;3.72;88.48;100478.63;1714096;83;21012;-69
2023/04/04 08:09:35;;;;;;;10.95;5.00;;;;;;;3.73;88.48;100481.69;1719252;83;21082;-70
2023/04/04 08:12:05;;;;;;;9.43;4.80;;;;;;;3.77;88.55;100482.59;1712462;83;21060;-69
2023/04/04 08:14:35;;;;;;;7.25;4.47;;;;;;;3.78;88.10;100480.73;1658382;85;21071;-68
2023/04/04 08:17:06;;;;;;;7.90;5.10;;;;;;;3.75;87.82;100471.55;1644143;87;21508;-67
2023/04/04 08:19:35;;;;;;;10.38;5.28;;;;;;;3.77;88.01;100467.68;1619314;88;21527;-68
2023/04/04 08:22:04;;;;;;;10.32;5.30;;;;;;;3.82;87.78;100477.56;1644354;87;21494;-69
2023/04/04 08:24:36;;;;;;;12.03;5.97;;;;;;;3.88;87.90;100469.82;1644475;87;21022;-71
2023/04/04 08:27:06;;;;;;;10.82;6.70;;;;;;;3.96;88.04;100470.80;1644400;86;21101;-71
2023/04/04 08:29:36;;;;;;;13.10;6.80;;;;;;;4.03;87.77;100469.67;1644490;87;21045;-70
2023/04/04 08:32:06;;;;;;;9.13;5.65;;;;;;;4.09;87.96;100476.69;1656923;86;21072;-71
2023/04/04 08:34:36;;;;;;;11.53;6.42;;;;;;;4.17;87.65;100479.98;1650616;87;21107;-70
2023/04/04 08:37:07;;;;;;;8.40;5.45;;;;;;;4.22;87.39;100476.81;1640640;87;21530;-71
2023/04/04 08:39:36;;;;;;;10.10;5.55;;;;;;;4.26;87.13;100465.49;1705544;84;21188;-70
2023/04/04 08:42:06;;;;;;;13.03;6.83;;;;;;;4.30;87.01;100470.10;1705439;84;21024;-71
2023/04/04 08:44:37;;;;;;;19.07;8.45;;;;;;;4.33;86.68;100477.93;1705771;84;21027;-70
2023/04/04 08:47:08;;;;;;;17.07;7.00;;;;;;;4.33;86.55;100479.28;1687808;84;21083;-72
2023/04/04 08:49:42;;;;;;;12.93;6.70;;;;;;;4.36;86.87;100471.69;1708942;82;21003;-72
2023/04/04 08:52:11;;;;;;;11.95;6.55;;;;;;;4.41;86.77;100476.64;1711541;84;21388;-72
2023/04/04 08:54:42;;;;;;;14.00;6.47;;;;;;;4.44;86.60;100491.25;1711514;82;21027;-71
2023/04/04 08:57:11;;;;;;;13.55;6.42;;;;;;;4.45;86.29;100497.03;1711235;84;21135;-72
2023/04/04 08:59:41;;;;;;;13.83;6.83;;;;;;;4.43;86.10;100493.62;1711430;84;21011;-73
2023/04/04 09:02:18;;;;;;;10.20;6.00;;;;;;;4.41;86.06;100488.85;1711472;83;21106;-74
2023/04/04 09:04:47;;;;;;;8.20;4.58;;;;;;;4.44;86.12;100502.95;1711424;83;21070;-71
2023/04/04 09:07:18;;;;;;;10.93;5.70;;;;;;;4.40;85.80;100492.06;1707725;84;21120;-73
2023/04/04 09:09:48;;;;;;;10.10;6.12;;;;;;;4.38;85.67;100490.52;1709476;83;21504;-69
2023/04/04 09:12:17;;;;;;;11.25;6.60;;;;;;;4.41;85.75;100496.98;1713347;83;21107;-73
2023/04/04 09:14:50;;;;;;;10.90;6.10;;;;;;;4.44;85.81;100489.89;1717714;83;21049;-73
2023/04/04 09:17:20;;;;;;;14.07;6.42;;;;;;;4.49;85.85;100500.28;1717459;83;21096;-72
2023/04/04 09:19:49;;;;;;;12.07;6.42;;;;;;;4.53;85.76;100497.59;1689547;83;21069;-72
2023/04/04 09:22:18;;;;;;;10.13;6.03;;;;;;;4.51;85.59;100495.05;1717197;83;21555;-74
2023/04/04 09:24:49;;;;;;;12.00;6.25;;;;;;;4.48;85.50;100491.28;1683399;83;21053;-74
2023/04/04 09:27:21;;;;;;;12.50;6.50;;;;;;;4.44;85.12;100495.32;1717142;83;21076;-71
2023/04/04 09:29:52;;;;;;;14.18;6.97;;;;;;;4.38;85.24;100494.59;1684080;83;21072;-72
2023/04/04 09:32:23;;;;;;;19.60;7.30;;;;;;;4.37;85.41;100495.09;1717796;83;21068;-73
2023/04/04 09:34:53;;;;;;;15.30;6.65;;;;;;;4.40;85.56;100496.14;1690498;83;21097;-71
2023/04/04 09:37:22;;;;;;;18.62;7.83;;;;;;;4.42;85.75;100496.83;1689575;83;21759;-74
2023/04/04 09:39:51;;;;;;;18.17;7.85;;;;;;;4.38;85.60;100494.59;1683716;83;21045;-72
2023/04/04 09:42:20;;;;;;;16.17;7.70;;;;;;;4.39;85.80;100490.87;1689644;83;21492;-70
2023/04/04 09:44:55;;;;;;;20.20;7.55;;;;;;;4.43;86.03;100494.97;1717485;83;21473;-71
2023/04/04 09:47:29;;;;;;;15.70;6.40;;;;;;;4.50;86.22;100489.77;1689827;83;21044;-73
2023/04/04 09:50:00;;;;;;;9.20;5.30;;;;;;;4.55;86.24;100487.44;1717629;83;21442;-72
2023/04/04 09:52:38;;;;;;;9.75;5.20;;;;;;;4.59;85.88;100493.79;1718704;83;21011;-73
2023/04/04 09:55:07;;;;;;;9.63;5.17;;;;;;;4.62;85.53;100483.98;1718763;83;21063;-74
2023/04/04 09:57:38;;;;;;;10.23;5.28;;;;;;;4.70;85.69;100488.11;1718876;83;21046;-73
2023/04/04 10:00:08;;;;;;;11.68;5.67;;;;;;;4.75;85.37;100485.77;1718743;83;21034;-75
2023/04/04 10:02:42;;;;;;;8.40;5.42;;;;;;;4.78;84.97;100489.53;1691757;83;21059;-75
2023/04/04 10:05:10;;;;;;;16.00;5.95;;;;;;;4.84;84.55;100481.77;1691475;83;21532;-74
2023/04/04 10:07:42;;;;;;;8.53;5.15;;;;;;;4.83;83.76;100484.13;1719228;83;21022;-76
2023/04/04 10:10:14;;;;;;;8.25;5.58;;;;;;;4.81;83.47;100487.00;1719242;82;21451;-75
2023/04/04 10:13:00;;;;;;;9.80;5.47;;;;;;;4.84;83.29;100485.84;1716128;81;21093;-74
2023/04/04 10:15:37;;;;;;;8.40;5.15;;;;;;;4.88;83.34;100485.36;1674117;84;21110;-76
2023/04/04 10:18:06;;;;;;;11.50;5.85;;;;;;;4.94;83.19;100475.72;1713800;83;21081;-75
2023/04/04 10:20:36;;;;;;;10.38;5.78;;;;;;;4.97;82.87;100477.61;1713662;82;21047;-79
2023/04/04 10:23:06;;;;;;;9.33;5.97;;;;;;;5.01;82.74;100475.43;1713994;84;21011;-75
2023/04/04 10:25:36;;;;;;;10.85;5.33;;;;;;;5.09;83.10;100479.55;1714295;83;21019;-76
2023/04/04 10:28:06;;;;;;;7.95;5.50;;;;;;;5.14;82.56;100474.48;1714053;84;21475;-75
2023/04/04 10:30:43;;;;;;;8.78;5.25;;;;;;;5.18;82.64;100479.95;1714068;84;21130;-75
2023/04/04 10:33:47;;;;;;;7.90;5.35;;;;;;;5.21;81.87;100473.38;1713388;82;21015;-78
2023/04/04 10:36:26;;;;;;;11.33;5.87;;;;;;;5.16;81.69;100471.11;1694316;84;21054;-78
2023/04/04 10:39:26;;;;;;;10.75;5.95;;;;;;;5.19;81.97;100461.78;1695945;84;21058;-67
2023/04/04 10:41:56;;;;;;;14.25;6.60;;;;;;;5.25;82.18;100464.73;1714069;82;21062;-66
2023/04/04 10:44:33;;;;;;;10.80;6.10;;;;;;;5.35;82.82;100459.18;1653884;85;21153;-77
2023/04/04 10:47:16;;;;;;;13.73;6.73;;;;;;;5.49;82.84;100461.79;1621640;88;21070;-77
2023/04/04 10:49:47;;;;;;;13.40;6.12;;;;;;;5.55;82.31;100476.94;1653504;87;21066;-71
2023/04/04 10:52:23;;;;;;;9.23;6.17;;;;;;;5.59;81.89;100472.88;1652543;86;21040;-75
2023/04/04 10:54:55;;;;;;;9.40;5.40;;;;;;;5.61;81.50;100478.14;1652008;87;21225;-75
2023/04/04 10:57:24;;;;;;;9.20;6.10;;;;;;;5.63;80.73;100481.55;1652486;85;21065;-75
2023/04/04 11:00:09;;;;;;;11.03;6.30;;;;;;;5.61;80.31;100481.71;1654238;87;21742;-75
2023/04/04 11:02:58;;;;;;;11.35;6.10;;;;;;;5.59;79.87;100480.17;1670851;85;21503;-74
2023/04/04 11:05:50;;;;;;;11.18;5.92;;;;;;;5.59;80.03;100480.17;1691966;84;21018;-75
2023/04/04 11:08:24;;;;;;;15.18;6.03;;;;;;;5.62;80.21;100473.05;1715450;84;21462;-74
2023/04/04 11:10:54;;;;;;;10.53;5.75;;;;;;;5.66;79.86;100477.14;1714211;82;21491;-73
2023/04/04 11:13:38;;;;;;;9.48;5.92;;;;;;;5.69;79.89;100479.03;1719146;82;21086;-74
2023/04/04 11:16:14;;;;;;;7.60;5.53;;;;;;;5.76;80.07;100471.06;1721811;83;21439;-73
2023/04/04 11:18:46;;;;;;;11.05;5.60;;;;;;;5.82;79.86;100469.04;1679523;84;21059;-73
2023/04/04 11:21:18;;;;;;;9.68;5.37;;;;;;;5.84;79.36;100467.01;1646129;85;21046;-75
2023/04/04 11:23:52;;;;;;;10.15;5.83;;;;;;;5.83;79.15;100472.10;1679406;85;21087;-72
2023/04/04 11:26:33;;;;;;;11.57;5.40;;;;;;;5.84;79.25;100477.03;1646021;87;21149;-77
2023/04/04 11:29:03;;;;;;;9.38;4.97;;;;;;;5.85;79.01;100473.30;1679170;85;21159;-75
2023/04/04 11:31:39;;;;;;;7.78;5.00;;;;;;;5.84;78.72;100473.80;1646035;85;21011;-70
2023/04/04 11:34:14;;;;;;;10.32;5.12;;;;;;;5.83;78.86;100477.55;1679706;85;21232;-81
2023/04/04 11:36:46;;;;;;;9.95;5.70;;;;;;;5.82;78.76;100481.27;1662832;85;21087;-82
2023/04/04 11:39:29;;;;;;;20.35;7.65;;;;;;;5.80;78.99;100471.08;1721394;82;21026;-77
2023/04/04 11:42:07;;;;;;;9.85;5.90;;;;;;;5.79;78.65;100476.67;1721235;82;21029;-75
2023/04/04 11:44:44;;;;;;;12.00;5.70;;;;;;;5.81;79.32;100480.08;1695134;83;21081;-74
2023/04/04 11:47:13;;;;;;;9.05;5.80;;;;;;;5.84;79.32;100471.09;1715879;83;21046;-71
2023/04/04 11:49:43;;;;;;;11.38;5.50;;;;;;;5.84;79.05;100467.01;1721832;82;21026;-75
2023/04/04 11:52:15;;;;;;;8.85;5.95;;;;;;;5.88;79.20;100466.20;1718801;82;21049;-72